sensor_id;sensor_type;location;lat;lon;timestamp;pressure;altitude;pressure_sealevel;temperature;humidity
21357;BME280;10836;53.068;18.234;2023-03-11T00:00:20;98230.59;;;0.54;100.00
21357;BME280;10836;53.068;18.234;2023-03-11T00:03:08;98220.66;;;0.50;100.00
21357;BME280;10836;53.068;18.234;2023-03-11T00:05:38;98217.69;;;0.61;100.00
21357;BME280;10836;53.068;18.234;2023-03-11T00:08:07;98211.25;;;0.47;100.00
21357;BME280;10836;53.068;18.234;2023-03-11T00:10:37;98219.56;;;0.51;100.00
21357;BME280;10836;53.068;18.234;2023-03-11T00:13:07;98228.16;;;0.53;100.00
21357;BME280;10836;53.068;18.234;2023-03-11T00:15:34;98216.63;;;0.47;100.00
21357;BME280;10836;53.068;18.234;2023-03-11T00:18:02;98222.28;;;0.41;100.00
21357;BME280;10836;53.068;18.234;2023-03-11T00:20:32;98224.97;;;0.41;100.00
21357;BME280;10836;53.068;18.234;2023-03-11T00:23:00;98220.41;;;0.41;100.00
21357;BME280;10836;53.068;18.234;2023-03-11T00:25:29;98213.66;;;0.49;100.00
21357;BME280;10836;53.068;18.234;2023-03-11T00:27:57;98215.00;;;0.56;100.00
21357;BME280;10836;53.068;18.234;2023-03-11T00:30:24;98207.50;;;0.48;100.00
21357;BME280;10836;53.068;18.234;2023-03-11T00:32:53;98206.41;;;0.54;100.00
21357;BME280;10836;53.068;18.234;2023-03-11T00:35:22;98203.22;;;0.42;100.00
21357;BME280;10836;53.068;18.234;2023-03-11T00:37:53;98202.69;;;0.35;100.00
21357;BME280;10836;53.068;18.234;2023-03-11T00:40:22;98203.75;;;0.34;100.00
21357;BME280;10836;53.068;18.234;2023-03-11T00:42:49;98203.75;;;0.34;100.00
21357;BME280;10836;53.068;18.234;2023-03-11T00:45:16;98204.28;;;0.36;100.00
21357;BME280;10836;53.068;18.234;2023-03-11T00:47:44;98195.94;;;0.48;100.00
21357;BME280;10836;53.068;18.234;2023-03-11T00:50:31;98187.13;;;0.42;100.00
21357;BME280;10836;53.068;18.234;2023-03-11T00:52:59;98187.66;;;0.39;100.00
21357;BME280;10836;53.068;18.234;2023-03-11T00:55:29;98185.22;;;0.38;100.00
21357;BME280;10836;53.068;18.234;2023-03-11T00:57:59;98180.63;;;0.48;100.00
21357;BME280;10836;53.068;18.234;2023-03-11T01:00:32;98182.81;;;0.41;100.00
21357;BME280;10836;53.068;18.234;2023-03-11T01:03:02;98179.03;;;0.22;100.00
21357;BME280;10836;53.068;18.234;2023-03-11T01:05:30;98178.50;;;0.10;100.00
21357;BME280;10836;53.068;18.234;2023-03-11T01:07:58;98175.28;;;0.18;100.00
21357;BME280;10836;53.068;18.234;2023-03-11T01:10:27;98179.06;;;0.27;100.00
21357;BME280;10836;53.068;18.234;2023-03-11T01:12:54;98172.06;;;0.16;100.00
21357;BME280;10836;53.068;18.234;2023-03-11T01:15:24;98170.19;;;0.21;100.00
21357;BME280;10836;53.068;18.234;2023-03-11T01:17:52;98171.00;;;0.32;100.00
21357;BME280;10836;53.068;18.234;2023-03-11T01:20:19;98181.19;;;0.45;100.00
21357;BME280;10836;53.068;18.234;2023-03-11T01:22:46;98190.34;;;0.39;100.00
21357;BME280;10836;53.068;18.234;2023-03-11T01:25:15;98191.94;;;0.35;100.00
21357;BME280;10836;53.068;18.234;2023-03-11T01:27:43;98191.94;;;0.25;100.00
21357;BME280;10836;53.068;18.234;2023-03-11T01:30:13;98194.09;;;0.28;100.00
21357;BME280;10836;53.068;18.234;2023-03-11T01:32:41;98188.19;;;0.26;100.00
21357;BME280;10836;53.068;18.234;2023-03-11T01:35:10;98187.09;;;0.32;100.00
21357;BME280;10836;53.068;18.234;2023-03-11T01:37:38;98197.31;;;0.35;100.00
21357;BME280;10836;53.068;18.234;2023-03-11T01:40:07;98197.03;;;0.31;100.00
21357;BME280;10836;53.068;18.234;2023-03-11T01:42:35;98206.97;;;0.26;100.00
21357;BME280;10836;53.068;18.234;2023-03-11T01:45:28;98197.56;;;0.28;100.00
21357;BME280;10836;53.068;18.234;2023-03-11T01:47:56;98192.47;;;0.32;100.00
21357;BME280;10836;53.068;18.234;2023-03-11T01:50:24;98186.84;;;0.28;100.00
21357;BME280;10836;53.068;18.234;2023-03-11T01:52:53;98193.00;;;0.34;100.00
21357;BME280;10836;53.068;18.234;2023-03-11T01:55:20;98197.56;;;0.33;100.00
21357;BME280;10836;53.068;18.234;2023-03-11T01:57:48;98189.25;;;0.30;100.00
21357;BME280;10836;53.068;18.234;2023-03-11T02:00:16;98194.34;;;0.26;100.00
21357;BME280;10836;53.068;18.234;2023-03-11T02:05:13;98191.09;;;0.45;100.00
21357;BME280;10836;53.068;18.234;2023-03-11T02:07:40;98189.00;;;0.37;100.00
21357;BME280;10836;53.068;18.234;2023-03-11T02:10:11;98193.00;;;0.29;100.00
21357;BME280;10836;53.068;18.234;2023-03-11T02:12:40;98186.56;;;0.40;100.00
21357;BME280;10836;53.068;18.234;2023-03-11T02:15:08;98196.22;;;0.31;100.00
21357;BME280;10836;53.068;18.234;2023-03-11T02:17:37;98181.19;;;0.25;100.00
21357;BME280;10836;53.068;18.234;2023-03-11T02:20:13;98189.78;;;0.27;100.00
21357;BME280;10836;53.068;18.234;2023-03-11T02:22:43;98191.41;;;0.28;100.00
21357;BME280;10836;53.068;18.234;2023-03-11T02:25:20;98188.19;;;0.31;100.00
21357;BME280;10836;53.068;18.234;2023-03-11T02:27:52;98187.09;;;0.27;100.00
21357;BME280;10836;53.068;18.234;2023-03-11T02:30:23;98183.88;;;0.30;100.00
21357;BME280;10836;53.068;18.234;2023-03-11T02:32:52;98194.63;;;0.40;100.00
21357;BME280;10836;53.068;18.234;2023-03-11T02:35:20;98191.94;;;0.35;100.00
21357;BME280;10836;53.068;18.234;2023-03-11T02:37:50;98189.78;;;0.27;100.00
21357;BME280;10836;53.068;18.234;2023-03-11T02:42:51;98184.41;;;0.27;100.00
21357;BME280;10836;53.068;18.234;2023-03-11T02:45:23;98194.63;;;0.40;100.00
21357;BME280;10836;53.068;18.234;2023-03-11T02:47:52;98200.50;;;0.22;100.00
21357;BME280;10836;53.068;18.234;2023-03-11T02:50:20;98210.41;;;0.06;100.00
21357;BME280;10836;53.068;18.234;2023-03-11T02:52:48;98213.63;;;0.08;100.00
21357;BME280;10836;53.068;18.234;2023-03-11T02:55:16;98216.59;;;0.07;100.00
21357;BME280;10836;53.068;18.234;2023-03-11T02:57:45;98217.41;;;0.12;100.00
21357;BME280;10836;53.068;18.234;2023-03-11T03:00:13;98218.22;;;0.18;100.00
21357;BME280;10836;53.068;18.234;2023-03-11T03:02:50;98218.75;;;0.15;100.00
21357;BME280;10836;53.068;18.234;2023-03-11T03:05:19;98225.72;;;0.16;100.00
21357;BME280;10836;53.068;18.234;2023-03-11T03:07:48;98229.47;;;0.15;100.00
21357;BME280;10836;53.068;18.234;2023-03-11T03:10:18;98226.00;;;0.09;100.00
21357;BME280;10836;53.068;18.234;2023-03-11T03:12:46;98232.16;;;0.05;100.00
21357;BME280;10836;53.068;18.234;2023-03-11T03:15:13;98237.56;;;0.20;100.00
21357;BME280;10836;53.068;18.234;2023-03-11T03:17:43;98234.31;;;0.18;100.00
21357;BME280;10836;53.068;18.234;2023-03-11T03:20:11;98240.78;;;0.27;100.00
21357;BME280;10836;53.068;18.234;2023-03-11T03:22:43;98238.91;;;0.22;100.00
21357;BME280;10836;53.068;18.234;2023-03-11T03:25:13;98241.31;;;0.29;100.00
21357;BME280;10836;53.068;18.234;2023-03-11T03:27:40;98242.88;;;0.10;100.00
21357;BME280;10836;53.068;18.234;2023-03-11T03:30:08;98239.16;;;0.21;100.00
21357;BME280;10836;53.068;18.234;2023-03-11T03:32:37;98247.19;;;0.16;100.00
21357;BME280;10836;53.068;18.234;2023-03-11T03:35:06;98258.47;;;0.13;100.00
21357;BME280;10836;53.068;18.234;2023-03-11T03:37:54;98253.66;;;0.20;100.00
21357;BME280;10836;53.068;18.234;2023-03-11T03:40:21;98264.88;;;0.07;100.00
21357;BME280;10836;53.068;18.234;2023-03-11T03:42:50;98267.31;;;0.08;100.00
21357;BME280;10836;53.068;18.234;2023-03-11T03:45:17;98268.63;;;0.06;100.00
21357;BME280;10836;53.068;18.234;2023-03-11T03:47:45;98273.53;;;0.24;100.00
21357;BME280;10836;53.068;18.234;2023-03-11T03:50:12;98275.91;;;0.15;100.00
21357;BME280;10836;53.068;18.234;2023-03-11T03:52:43;98271.06;;;0.07;100.00
21357;BME280;10836;53.068;18.234;2023-03-11T03:55:10;98282.03;;;0.00;100.00
21357;BME280;10836;53.068;18.234;2023-03-11T03:57:38;98291.44;;;0.03;100.00
21357;BME280;10836;53.068;18.234;2023-03-11T04:00:07;98287.94;;;-0.08;100.00
21357;BME280;10836;53.068;18.234;2023-03-11T04:02:43;98284.22;;;0.09;100.00
21357;BME280;10836;53.068;18.234;2023-03-11T04:05:19;98284.19;;;0.04;100.00
21357;BME280;10836;53.068;18.234;2023-03-11T04:07:46;98289.81;;;0.02;100.00
21357;BME280;10836;53.068;18.234;2023-03-11T04:10:13;98286.88;;;-0.07;100.00
21357;BME280;10836;53.068;18.234;2023-03-11T04:12:41;98294.66;;;-0.05;100.00
21357;BME280;10836;53.068;18.234;2023-03-11T04:15:09;98293.81;;;-0.11;100.00
21357;BME280;10836;53.068;18.234;2023-03-11T04:17:37;98301.63;;;-0.04;100.00
21357;BME280;10836;53.068;18.234;2023-03-11T04:20:05;98300.84;;;0.06;100.00
21357;BME280;10836;53.068;18.234;2023-03-11T04:22:40;98300.84;;;0.06;100.00
21357;BME280;10836;53.068;18.234;2023-03-11T04:25:07;98307.81;;;-0.04;100.00
21357;BME280;10836;53.068;18.234;2023-03-11T04:27:35;98301.34;;;-0.08;100.00
21357;BME280;10836;53.068;18.234;2023-03-11T04:30:06;98305.38;;;-0.05;100.00
21357;BME280;10836;53.068;18.234;2023-03-11T04:32:33;98307.81;;;0.07;100.00
21357;BME280;10836;53.068;18.234;2023-03-11T04:35:02;98306.19;;;0.06;100.00
21357;BME280;10836;53.068;18.234;2023-03-11T04:37:30;98302.16;;;0.03;100.00
21357;BME280;10836;53.068;18.234;2023-03-11T04:39:57;98307.81;;;-0.04;100.00
21357;BME280;10836;53.068;18.234;2023-03-11T04:42:24;98312.59;;;-0.11;100.00
21357;BME280;10836;53.068;18.234;2023-03-11T04:44:52;98310.47;;;0.02;100.00
21357;BME280;10836;53.068;18.234;2023-03-11T04:47:19;98314.22;;;0.00;100.00
21357;BME280;10836;53.068;18.234;2023-03-11T04:49:47;98313.16;;;-0.04;100.00
21357;BME280;10836;53.068;18.234;2023-03-11T04:52:14;98322.84;;;-0.03;100.00
21357;BME280;10836;53.068;18.234;2023-03-11T04:54:42;98330.88;;;-0.03;100.00
21357;BME280;10836;53.068;18.234;2023-03-11T04:57:09;98336.78;;;-0.01;100.00
21357;BME280;10836;53.068;18.234;2023-03-11T04:59:39;98336.44;;;-0.19;100.00
21357;BME280;10836;53.068;18.234;2023-03-11T05:02:07;98338.84;;;-0.18;100.00
21357;BME280;10836;53.068;18.234;2023-03-11T05:04:41;98351.50;;;-0.13;100.00
21357;BME280;10836;53.068;18.234;2023-03-11T05:07:09;98355.81;;;-0.07;100.00
21357;BME280;10836;53.068;18.234;2023-03-11T05:09:36;98359.25;;;-0.17;100.00
21357;BME280;10836;53.068;18.234;2023-03-11T05:12:04;98354.94;;;-0.18;100.00
21357;BME280;10836;53.068;18.234;2023-03-11T05:14:33;98368.66;;;-0.14;100.00
21357;BME280;10836;53.068;18.234;2023-03-11T05:17:00;98361.34;;;-0.24;100.00
21357;BME280;10836;53.068;18.234;2023-03-11T05:19:28;98369.44;;;-0.19;100.00
21357;BME280;10836;53.068;18.234;2023-03-11T05:22:06;98371.56;;;-0.21;100.00
21357;BME280;10836;53.068;18.234;2023-03-11T05:24:33;98378.00;;;-0.22;100.00
21357;BME280;10836;53.068;18.234;2023-03-11T05:27:01;98390.88;;;-0.19;100.00
21357;BME280;10836;53.068;18.234;2023-03-11T05:29:29;98390.88;;;-0.19;100.00
21357;BME280;10836;53.068;18.234;2023-03-11T05:31:56;98401.09;;;-0.16;100.00
21357;BME280;10836;53.068;18.234;2023-03-11T05:34:23;98400.00;;;-0.20;100.00
21357;BME280;10836;53.068;18.234;2023-03-11T05:36:50;98406.44;;;-0.21;100.00
21357;BME280;10836;53.068;18.234;2023-03-11T05:39:18;98405.88;;;-0.23;100.00
21357;BME280;10836;53.068;18.234;2023-03-11T05:41:45;98410.72;;;-0.20;100.00
21357;BME280;10836;53.068;18.234;2023-03-11T05:44:13;98415.53;;;-0.22;100.00
21357;BME280;10836;53.068;18.234;2023-03-11T05:46:41;98427.34;;;-0.23;100.00
21357;BME280;10836;53.068;18.234;2023-03-11T05:49:08;98421.44;;;-0.20;100.00
21357;BME280;10836;53.068;18.234;2023-03-11T05:51:36;98430.03;;;-0.18;100.00
21357;BME280;10836;53.068;18.234;2023-03-11T05:54:04;98433.28;;;-0.16;100.00
21357;BME280;10836;53.068;18.234;2023-03-11T05:56:40;98434.31;;;-0.22;100.00
21357;BME280;10836;53.068;18.234;2023-03-11T05:59:08;98442.34;;;-0.22;100.00
21357;BME280;10836;53.068;18.234;2023-03-11T06:01:36;98448.56;;;-0.16;100.00
21357;BME280;10836;53.068;18.234;2023-03-11T06:04:03;98461.22;;;-0.12;100.00
21357;BME280;10836;53.068;18.234;2023-03-11T06:06:31;98463.94;;;-0.07;100.00
21357;BME280;10836;53.068;18.234;2023-03-11T06:08:58;98475.97;;;-0.09;100.00
21357;BME280;10836;53.068;18.234;2023-03-11T06:11:27;98477.06;;;-0.05;100.00
21357;BME280;10836;53.068;18.234;2023-03-11T06:13:56;98488.53;;;-0.15;100.00
21357;BME280;10836;53.068;18.234;2023-03-11T06:16:25;98497.09;;;-0.18;100.00
21357;BME280;10836;53.068;18.234;2023-03-11T06:18:56;98501.75;;;-0.08;100.00
21357;BME280;10836;53.068;18.234;2023-03-11T06:21:29;98503.53;;;-0.19;100.00
21357;BME280;10836;53.068;18.234;2023-03-11T06:23:56;98520.72;;;-0.15;100.00
21357;BME280;10836;53.068;18.234;2023-03-11T06:26:25;98519.13;;;-0.16;100.00
21357;BME280;10836;53.068;18.234;2023-03-11T06:28:52;98526.88;;;-0.19;100.00
21357;BME280;10836;53.068;18.234;2023-03-11T06:31:27;98534.09;;;-0.20;100.00
21357;BME280;10836;53.068;18.234;2023-03-11T06:34:02;98545.34;;;-0.23;100.00
21357;BME280;10836;53.068;18.234;2023-03-11T06:36:30;98543.69;;;-0.29;100.00
21357;BME280;10836;53.068;18.234;2023-03-11T06:38:57;98553.44;;;-0.18;100.00
21357;BME280;10836;53.068;18.234;2023-03-11T06:41:26;98556.06;;;-0.23;100.00
21357;BME280;10836;53.068;18.234;2023-03-11T06:43:53;98567.91;;;-0.19;100.00
21357;BME280;10836;53.068;18.234;2023-03-11T06:46:22;98566.53;;;-0.21;100.00
21357;BME280;10836;53.068;18.234;2023-03-11T06:48:51;98579.16;;;-0.22;100.00
21357;BME280;10836;53.068;18.234;2023-03-11T06:51:20;98590.97;;;-0.18;100.00
21357;BME280;10836;53.068;18.234;2023-03-11T06:53:51;98606.47;;;-0.25;100.00
21357;BME280;10836;53.068;18.234;2023-03-11T06:56:21;98609.25;;;-0.15;100.00
21357;BME280;10836;53.068;18.234;2023-03-11T06:58:53;98610.31;;;-0.16;100.00
21357;BME280;10836;53.068;18.234;2023-03-11T07:01:23;98619.94;;;-0.20;100.00
21357;BME280;10836;53.068;18.234;2023-03-11T07:03:53;98636.13;;;-0.10;100.00
21357;BME280;10836;53.068;18.234;2023-03-11T07:06:24;98652.81;;;-0.03;100.00
21357;BME280;10836;53.068;18.234;2023-03-11T07:08:56;98648.47;;;-0.09;100.00
21357;BME280;10836;53.068;18.234;2023-03-11T07:11:26;98670.69;;;-0.13;100.00
21357;BME280;10836;53.068;18.234;2023-03-11T07:13:59;98666.19;;;-0.08;100.00
21357;BME280;10836;53.068;18.234;2023-03-11T07:16:31;98682.78;;;-0.11;100.00
21357;BME280;10836;53.068;18.234;2023-03-11T07:19:05;98695.75;;;-0.03;100.00
21357;BME280;10836;53.068;18.234;2023-03-11T07:21:32;98700.50;;;-0.10;100.00
21357;BME280;10836;53.068;18.234;2023-03-11T07:24:00;98711.25;;;-0.10;100.00
21357;BME280;10836;53.068;18.234;2023-03-11T07:26:29;98716.59;;;-0.10;100.00
21357;BME280;10836;53.068;18.234;2023-03-11T07:28:57;98719.59;;;-0.06;100.00
21357;BME280;10836;53.068;18.234;2023-03-11T07:31:33;98722.59;;;-0.03;100.00
21357;BME280;10836;53.068;18.234;2023-03-11T07:34:03;98727.41;;;0.00;100.00
21357;BME280;10836;53.068;18.234;2023-03-11T07:36:30;98722.47;;;-0.13;100.00
21357;BME280;10836;53.068;18.234;2023-03-11T07:39:03;98726.03;;;-0.07;100.00
21357;BME280;10836;53.068;18.234;2023-03-11T07:41:33;98750.97;;;-0.07;100.00
21357;BME280;10836;53.068;18.234;2023-03-11T07:44:02;98745.88;;;-0.08;100.00
21357;BME280;10836;53.068;18.234;2023-03-11T07:46:30;98746.06;;;-0.15;100.00
21357;BME280;10836;53.068;18.234;2023-03-11T07:48:58;98753.28;;;-0.15;100.00
21357;BME280;10836;53.068;18.234;2023-03-11T07:51:30;98758.78;;;-0.05;100.00
21357;BME280;10836;53.068;18.234;2023-03-11T07:53:58;98761.53;;;-0.22;100.00
21357;BME280;10836;53.068;18.234;2023-03-11T07:56:29;98776.00;;;-0.23;100.00
21357;BME280;10836;53.068;18.234;2023-03-11T07:59:00;98775.44;;;-0.25;100.00
21357;BME280;10836;53.068;18.234;2023-03-11T08:01:28;98790.34;;;-0.34;100.00
21357;BME280;10836;53.068;18.234;2023-03-11T08:04:03;98792.09;;;-0.23;100.00
21357;BME280;10836;53.068;18.234;2023-03-11T08:06:32;98801.38;;;-0.30;100.00
21357;BME280;10836;53.068;18.234;2023-03-11T08:09:02;98808.44;;;-0.46;100.00
21357;BME280;10836;53.068;18.234;2023-03-11T08:11:30;98802.19;;;-0.52;100.00
21357;BME280;10836;53.068;18.234;2023-03-11T08:13:57;98811.88;;;-0.51;100.00
21357;BME280;10836;53.068;18.234;2023-03-11T08:16:25;98820.31;;;-0.59;100.00
21357;BME280;10836;53.068;18.234;2023-03-11T08:18:52;98836.09;;;-0.62;100.00
21357;BME280;10836;53.068;18.234;2023-03-11T08:21:22;98837.38;;;-0.65;100.00
21357;BME280;10836;53.068;18.234;2023-03-11T08:23:50;98842.44;;;-0.69;100.00
21357;BME280;10836;53.068;18.234;2023-03-11T08:26:19;98850.63;;;-0.58;100.00
21357;BME280;10836;53.068;18.234;2023-03-11T08:28:48;98860.78;;;-0.60;100.00
21357;BME280;10836;53.068;18.234;2023-03-11T08:31:20;98875.88;;;-0.54;100.00
21357;BME280;10836;53.068;18.234;2023-03-11T08:33:50;98872.16;;;-0.53;100.00
21357;BME280;10836;53.068;18.234;2023-03-11T08:36:18;98878.66;;;-0.49;100.00
21357;BME280;10836;53.068;18.234;2023-03-11T08:38:46;98886.94;;;-0.51;100.00
21357;BME280;10836;53.068;18.234;2023-03-11T08:41:14;98890.34;;;-0.55;100.00
21357;BME280;10836;53.068;18.234;2023-03-11T08:43:41;98898.78;;;-0.47;100.00
21357;BME280;10836;53.068;18.234;2023-03-11T08:46:34;98892.06;;;-0.49;100.00
21357;BME280;10836;53.068;18.234;2023-03-11T08:49:00;98905.47;;;-0.49;100.00
21357;BME280;10836;53.068;18.234;2023-03-11T08:51:29;98912.28;;;-0.58;100.00
21357;BME280;10836;53.068;18.234;2023-03-11T08:53:56;98912.78;;;-0.61;100.00
21357;BME280;10836;53.068;18.234;2023-03-11T08:56:23;98925.50;;;-0.69;100.00
21357;BME280;10836;53.068;18.234;2023-03-11T08:58:51;98926.25;;;-0.56;100.00
21357;BME280;10836;53.068;18.234;2023-03-11T09:01:18;98940.47;;;-0.56;100.00
21357;BME280;10836;53.068;18.234;2023-03-11T09:03:46;98954.69;;;-0.55;100.00
21357;BME280;10836;53.068;18.234;2023-03-11T09:06:14;98962.50;;;-0.54;100.00
21357;BME280;10836;53.068;18.234;2023-03-11T09:08:43;98966.56;;;-0.51;100.00
21357;BME280;10836;53.068;18.234;2023-03-11T09:11:11;98982.16;;;-0.48;100.00
21357;BME280;10836;53.068;18.234;2023-03-11T09:13:40;98985.16;;;-0.61;100.00
21357;BME280;10836;53.068;18.234;2023-03-11T09:16:12;98992.22;;;-0.55;100.00
21357;BME280;10836;53.068;18.234;2023-03-11T09:18:39;98991.41;;;-0.39;100.00
21357;BME280;10836;53.068;18.234;2023-03-11T09:21:07;99007.47;;;-0.39;100.00
21357;BME280;10836;53.068;18.234;2023-03-11T09:23:34;99009.03;;;-0.26;100.00
21357;BME280;10836;53.068;18.234;2023-03-11T09:26:01;99014.63;;;-0.28;100.00
21357;BME280;10836;53.068;18.234;2023-03-11T09:28:27;99019.34;;;-0.35;100.00
21357;BME280;10836;53.068;18.234;2023-03-11T09:30:55;99038.84;;;-0.40;100.00
21357;BME280;10836;53.068;18.234;2023-03-11T09:33:22;99048.47;;;-0.44;100.00
21357;BME280;10836;53.068;18.234;2023-03-11T09:35:49;99047.66;;;-0.44;100.00
21357;BME280;10836;53.068;18.234;2023-03-11T09:38:16;99061.94;;;-0.55;100.00
21357;BME280;10836;53.068;18.234;2023-03-11T09:41:01;99057.38;;;-0.55;100.00
21357;BME280;10836;53.068;18.234;2023-03-11T09:43:42;99073.59;;;-0.61;100.00
21357;BME280;10836;53.068;18.234;2023-03-11T09:46:49;99081.50;;;-0.55;100.00
21357;BME280;10836;53.068;18.234;2023-03-11T09:52:11;99082.91;;;-0.52;100.00
21357;BME280;10836;53.068;18.234;2023-03-11T09:54:46;99097.50;;;-0.43;100.00
21357;BME280;10836;53.068;18.234;2023-03-11T09:57:21;99104.50;;;-0.42;100.00
21357;BME280;10836;53.068;18.234;2023-03-11T09:59:50;99111.50;;;-0.41;100.00
21357;BME280;10836;53.068;18.234;2023-03-11T10:02:19;99109.81;;;-0.47;100.00
21357;BME280;10836;53.068;18.234;2023-03-11T10:05:05;99110.84;;;-0.48;100.00
21357;BME280;10836;53.068;18.234;2023-03-11T10:07:39;99126.47;;;-0.45;100.00
21357;BME280;10836;53.068;18.234;2023-03-11T10:10:12;99132.00;;;-0.35;100.00
21357;BME280;10836;53.068;18.234;2023-03-11T10:13:04;99140.28;;;-0.37;100.00
21357;BME280;10836;53.068;18.234;2023-03-11T10:15:41;99145.78;;;-0.43;100.00
21357;BME280;10836;53.068;18.234;2023-03-11T10:24:06;99157.56;;;-0.16;100.00
21357;BME280;10836;53.068;18.234;2023-03-11T10:26:44;99170.59;;;-0.08;100.00
21357;BME280;10836;53.068;18.234;2023-03-11T10:29:20;99164.41;;;0.09;100.00
21357;BME280;10836;53.068;18.234;2023-03-11T10:32:04;99183.84;;;0.16;100.00
21357;BME280;10836;53.068;18.234;2023-03-11T10:34:36;99183.06;;;0.32;100.00
21357;BME280;10836;53.068;18.234;2023-03-11T10:37:11;99187.47;;;0.38;100.00
21357;BME280;10836;53.068;18.234;2023-03-11T10:39:40;99188.19;;;0.33;100.00
21357;BME280;10836;53.068;18.234;2023-03-11T10:42:16;99196.66;;;0.42;100.00
21357;BME280;10836;53.068;18.234;2023-03-11T10:44:44;99195.00;;;0.24;100.00
21357;BME280;10836;53.068;18.234;2023-03-11T10:47:15;99189.22;;;0.16;100.00
21357;BME280;10836;53.068;18.234;2023-03-11T10:49:43;99208.00;;;0.16;100.00
21357;BME280;10836;53.068;18.234;2023-03-11T10:52:11;99216.94;;;0.05;100.00
21357;BME280;10836;53.068;18.234;2023-03-11T10:54:41;99210.59;;;0.11;100.00
21357;BME280;10836;53.068;18.234;2023-03-11T10:59:50;99228.69;;;0.32;100.00
21357;BME280;10836;53.068;18.234;2023-03-11T11:05:28;99238.63;;;0.48;100.00
21357;BME280;10836;53.068;18.234;2023-03-11T11:08:13;99245.63;;;0.49;100.00
21357;BME280;10836;53.068;18.234;2023-03-11T11:10:53;99242.84;;;0.27;100.00
21357;BME280;10836;53.068;18.234;2023-03-11T11:13:23;99243.81;;;0.21;100.00
21357;BME280;10836;53.068;18.234;2023-03-11T11:18:36;99249.81;;;0.12;100.00
21357;BME280;10836;53.068;18.234;2023-03-11T11:21:13;99251.63;;;0.23;100.00
21357;BME280;10836;53.068;18.234;2023-03-11T11:23:58;99268.03;;;0.10;100.00
21357;BME280;10836;53.068;18.234;2023-03-11T11:26:29;99265.91;;;0.12;100.00
21357;BME280;10836;53.068;18.234;2023-03-11T11:31:39;99272.88;;;0.24;100.00
21357;BME280;10836;53.068;18.234;2023-03-11T11:34:32;99276.88;;;0.10;100.00
21357;BME280;10836;53.068;18.234;2023-03-11T11:37:02;99286.81;;;0.10;100.00
21357;BME280;10836;53.068;18.234;2023-03-11T11:39:39;99291.56;;;0.19;100.00
21357;BME280;10836;53.068;18.234;2023-03-11T11:42:10;99295.09;;;0.37;100.00
21357;BME280;10836;53.068;18.234;2023-03-11T11:44:41;99298.69;;;0.42;100.00
21357;BME280;10836;53.068;18.234;2023-03-11T11:47:16;99306.34;;;0.50;100.00
21357;BME280;10836;53.068;18.234;2023-03-11T11:49:51;99312.06;;;0.71;100.00
21357;BME280;10836;53.068;18.234;2023-03-11T11:52:26;99310.75;;;0.56;100.00
21357;BME280;10836;53.068;18.234;2023-03-11T11:57:26;99324.31;;;0.50;100.00
21357;BME280;10836;53.068;18.234;2023-03-11T11:59:53;99323.91;;;0.41;100.00
21357;BME280;10836;53.068;18.234;2023-03-11T12:02:45;99316.28;;;0.66;100.00
21357;BME280;10836;53.068;18.234;2023-03-11T12:05:29;99327.19;;;0.60;100.00
21357;BME280;10836;53.068;18.234;2023-03-11T12:10:50;99344.66;;;0.74;100.00
21357;BME280;10836;53.068;18.234;2023-03-11T12:13:29;99341.56;;;0.82;100.00
21357;BME280;10836;53.068;18.234;2023-03-11T12:16:10;99350.50;;;1.05;100.00
21357;BME280;10836;53.068;18.234;2023-03-11T12:18:47;99357.34;;;1.12;100.00
21357;BME280;10836;53.068;18.234;2023-03-11T12:24:01;99365.00;;;0.87;100.00
21357;BME280;10836;53.068;18.234;2023-03-11T12:26:37;99371.69;;;0.84;100.00
21357;BME280;10836;53.068;18.234;2023-03-11T12:29:12;99376.66;;;0.76;100.00
21357;BME280;10836;53.068;18.234;2023-03-11T12:31:46;99377.88;;;0.85;100.00
21357;BME280;10836;53.068;18.234;2023-03-11T12:34:15;99376.25;;;0.84;100.00
21357;BME280;10836;53.068;18.234;2023-03-11T12:36:46;99393.88;;;0.63;100.00
21357;BME280;10836;53.068;18.234;2023-03-11T12:39:34;99390.75;;;0.54;100.00
21357;BME280;10836;53.068;18.234;2023-03-11T12:44:38;99408.59;;;0.60;100.00
21357;BME280;10836;53.068;18.234;2023-03-11T12:47:24;99411.75;;;0.57;100.00
21357;BME280;10836;53.068;18.234;2023-03-11T12:49:54;99416.31;;;0.57;100.00
21357;BME280;10836;53.068;18.234;2023-03-11T12:52:23;99416.22;;;0.52;100.00
21357;BME280;10836;53.068;18.234;2023-03-11T12:57:35;99434.84;;;0.70;100.00
21357;BME280;10836;53.068;18.234;2023-03-11T13:03:26;99436.81;;;1.20;100.00
21357;BME280;10836;53.068;18.234;2023-03-11T13:06:19;99449.78;;;1.23;100.00
21357;BME280;10836;53.068;18.234;2023-03-11T13:08:52;99452.34;;;1.34;100.00
21357;BME280;10836;53.068;18.234;2023-03-11T13:14:34;99469.28;;;1.02;100.00
21357;BME280;10836;53.068;18.234;2023-03-11T13:17:24;99481.78;;;0.96;100.00
21357;BME280;10836;53.068;18.234;2023-03-11T13:19:54;99496.03;;;0.80;100.00
21357;BME280;10836;53.068;18.234;2023-03-11T13:22:45;99483.81;;;0.89;100.00
21357;BME280;10836;53.068;18.234;2023-03-11T13:25:38;99500.19;;;0.87;100.00
21357;BME280;10836;53.068;18.234;2023-03-11T13:28:26;99485.06;;;0.98;100.00
21357;BME280;10836;53.068;18.234;2023-03-11T13:34:14;99510.88;;;1.27;100.00
21357;BME280;10836;53.068;18.234;2023-03-11T13:41:45;99519.66;;;2.23;97.97
21357;BME280;10836;53.068;18.234;2023-03-11T13:46:51;99524.84;;;2.47;89.40
21357;BME280;10836;53.068;18.234;2023-03-11T13:51:56;99537.91;;;1.99;94.95
21357;BME280;10836;53.068;18.234;2023-03-11T13:54:33;99544.75;;;1.57;95.37
21357;BME280;10836;53.068;18.234;2023-03-11T13:57:01;99556.09;;;1.59;97.18
21357;BME280;10836;53.068;18.234;2023-03-11T13:59:31;99576.06;;;1.34;94.99
21357;BME280;10836;53.068;18.234;2023-03-11T14:04:35;99586.84;;;1.06;97.03